Cherry Grove, New York
Current Conditions -  °F | °C
As of 10:56 PM on Wednesday 17 Dec 2014 (Local Time) from KISP Reporting Station
Broken Clouds Broken Clouds  
Wind Chill: 36°   Ceiling: 7000
Heat Index: 42°   Visibility: 10mi
Dew Point: 32°   Wind: 10mph
Humidity: 67%   Direction: 290°WNW
Pressure: 29.85"   Gusts: NA
Location:  40.7472°N, 73.0832°W
Report Text: KISP 180356Z 29009KT 10SM FEW049 BKN070 06/00 A2985 RMK AO2 SLP109 T00560000
Loading
Personal Weather Stations






























Interactive Weather Map New forecast layout! Learn more

10-Day Weather Forecast

Advertisements
Track Severe Weather on mobile